sensor_id;sensor_type;location;lat;lon;timestamp;pressure;altitude;pressure_sealevel;temperature;humidity
71857;BME280;59712;46.980;28.882;2022-07-06T00:01:55;100472.03;;;22.59;51.10
71857;BME280;59712;46.980;28.882;2022-07-06T00:04:22;100464.91;;;22.58;51.77
71857;BME280;59712;46.980;28.882;2022-07-06T00:06:49;100461.66;;;22.55;51.36
71857;BME280;59712;46.980;28.882;2022-07-06T00:09:16;100459.78;;;22.55;51.76
71857;BME280;59712;46.980;28.882;2022-07-06T00:11:45;100458.06;;;22.54;51.30
71857;BME280;59712;46.980;28.882;2022-07-06T00:14:12;100459.06;;;22.53;51.27
71857;BME280;59712;46.980;28.882;2022-07-06T00:16:39;100453.66;;;22.53;51.26
71857;BME280;59712;46.980;28.882;2022-07-06T00:19:06;100448.25;;;22.53;50.89
71857;BME280;59712;46.980;28.882;2022-07-06T00:21:33;100451.78;;;22.54;50.51
71857;BME280;59712;46.980;28.882;2022-07-06T00:24:00;100445.69;;;22.52;50.54
71857;BME280;59712;46.980;28.882;2022-07-06T00:26:28;100450.25;;;22.51;50.85
71857;BME280;59712;46.980;28.882;2022-07-06T00:28:55;100453.22;;;22.48;50.17
71857;BME280;59712;46.980;28.882;2022-07-06T00:31:22;100441.66;;;22.46;50.19
71857;BME280;59712;46.980;28.882;2022-07-06T00:33:49;100446.25;;;22.45;50.32
71857;BME280;59712;46.980;28.882;2022-07-06T00:36:16;100437.53;;;22.42;50.47
71857;BME280;59712;46.980;28.882;2022-07-06T00:38:43;100443.25;;;22.39;50.37
71857;BME280;59712;46.980;28.882;2022-07-06T00:41:12;100438.94;;;22.36;50.57
71857;BME280;59712;46.980;28.882;2022-07-06T00:44:07;100424.13;;;22.31;50.80
71857;BME280;59712;46.980;28.882;2022-07-06T00:46:34;100424.44;;;22.27;50.10
71857;BME280;59712;46.980;28.882;2022-07-06T00:49:02;100425.56;;;22.25;50.75
71857;BME280;59712;46.980;28.882;2022-07-06T00:51:31;100430.22;;;22.23;50.36
71857;BME280;59712;46.980;28.882;2022-07-06T00:54:02;100423.22;;;22.20;50.28
71857;BME280;59712;46.980;28.882;2022-07-06T00:56:31;100410.41;;;22.22;50.37
71857;BME280;59712;46.980;28.882;2022-07-06T00:59:02;100406.72;;;22.23;50.95
71857;BME280;59712;46.980;28.882;2022-07-06T01:01:30;100408.00;;;22.19;50.82
71857;BME280;59712;46.980;28.882;2022-07-06T01:03:58;100406.84;;;22.12;51.58
71857;BME280;59712;46.980;28.882;2022-07-06T01:06:25;100411.84;;;22.07;52.32
71857;BME280;59712;46.980;28.882;2022-07-06T01:08:53;100409.81;;;21.99;52.18
71857;BME280;59712;46.980;28.882;2022-07-06T01:11:21;100413.22;;;21.92;52.61
71857;BME280;59712;46.980;28.882;2022-07-06T01:13:48;100417.44;;;21.84;53.33
71857;BME280;59712;46.980;28.882;2022-07-06T01:16:16;100409.16;;;21.76;53.98
71857;BME280;59712;46.980;28.882;2022-07-06T01:18:44;100412.56;;;21.68;53.60
71857;BME280;59712;46.980;28.882;2022-07-06T01:21:12;100411.44;;;21.71;52.99
71857;BME280;59712;46.980;28.882;2022-07-06T01:23:43;100416.69;;;21.73;52.84
71857;BME280;59712;46.980;28.882;2022-07-06T01:26:13;100407.72;;;21.72;53.15
71857;BME280;59712;46.980;28.882;2022-07-06T01:28:41;100417.69;;;21.72;52.87
71857;BME280;59712;46.980;28.882;2022-07-06T01:31:19;100418.28;;;21.75;52.90
71857;BME280;59712;46.980;28.882;2022-07-06T01:33:49;100410.03;;;21.77;52.24
71857;BME280;59712;46.980;28.882;2022-07-06T01:36:16;100404.47;;;21.78;51.38
71857;BME280;59712;46.980;28.882;2022-07-06T01:38:54;100402.38;;;21.82;52.00
71857;BME280;59712;46.980;28.882;2022-07-06T01:41:22;100395.81;;;21.84;51.52
71857;BME280;59712;46.980;28.882;2022-07-06T01:43:49;100400.66;;;21.91;50.94
71857;BME280;59712;46.980;28.882;2022-07-06T01:46:17;100394.44;;;22.00;49.98
71857;BME280;59712;46.980;28.882;2022-07-06T01:48:47;100391.63;;;22.11;49.36
71857;BME280;59712;46.980;28.882;2022-07-06T01:51:14;100389.06;;;22.19;49.53
71857;BME280;59712;46.980;28.882;2022-07-06T01:53:41;100387.34;;;22.18;49.40
71857;BME280;59712;46.980;28.882;2022-07-06T01:56:12;100394.91;;;22.15;50.22
71857;BME280;59712;46.980;28.882;2022-07-06T01:58:40;100393.16;;;22.04;51.77
71857;BME280;59712;46.980;28.882;2022-07-06T02:01:13;100396.28;;;21.90;52.63
71857;BME280;59712;46.980;28.882;2022-07-06T02:03:41;100387.28;;;21.79;53.05
71857;BME280;59712;46.980;28.882;2022-07-06T02:06:08;100390.06;;;21.68;54.55
71857;BME280;59712;46.980;28.882;2022-07-06T02:08:35;100402.25;;;21.53;55.17
71857;BME280;59712;46.980;28.882;2022-07-06T02:11:04;100394.22;;;21.41;55.34
71857;BME280;59712;46.980;28.882;2022-07-06T02:13:31;100392.44;;;21.31;56.52
71857;BME280;59712;46.980;28.882;2022-07-06T02:15:58;100394.13;;;21.22;56.42
71857;BME280;59712;46.980;28.882;2022-07-06T02:18:26;100385.81;;;21.14;56.68
71857;BME280;59712;46.980;28.882;2022-07-06T02:20:54;100384.50;;;21.08;57.11
71857;BME280;59712;46.980;28.882;2022-07-06T02:23:21;100389.47;;;21.03;56.97
71857;BME280;59712;46.980;28.882;2022-07-06T02:25:48;100395.25;;;20.98;57.34
71857;BME280;59712;46.980;28.882;2022-07-06T02:28:15;100396.50;;;20.94;57.10
71857;BME280;59712;46.980;28.882;2022-07-06T02:30:42;100391.38;;;20.91;57.24
71857;BME280;59712;46.980;28.882;2022-07-06T02:33:10;100391.38;;;20.91;57.78
71857;BME280;59712;46.980;28.882;2022-07-06T02:35:37;100395.34;;;20.87;57.32
71857;BME280;59712;46.980;28.882;2022-07-06T02:38:09;100387.09;;;20.88;57.16
71857;BME280;59712;46.980;28.882;2022-07-06T02:40:36;100394.94;;;20.92;56.86
71857;BME280;59712;46.980;28.882;2022-07-06T02:43:03;100392.84;;;20.95;57.19
71857;BME280;59712;46.980;28.882;2022-07-06T02:45:31;100398.69;;;21.00;56.72
71857;BME280;59712;46.980;28.882;2022-07-06T02:47:59;100387.34;;;21.06;57.51
71857;BME280;59712;46.980;28.882;2022-07-06T02:50:26;100392.94;;;21.15;57.91
71857;BME280;59712;46.980;28.882;2022-07-06T02:52:53;100401.97;;;21.25;57.62
71857;BME280;59712;46.980;28.882;2022-07-06T02:55:22;100397.47;;;21.35;57.64
71857;BME280;59712;46.980;28.882;2022-07-06T02:57:49;100406.22;;;21.48;57.65
71857;BME280;59712;46.980;28.882;2022-07-06T03:00:16;100406.13;;;21.60;57.64
71857;BME280;59712;46.980;28.882;2022-07-06T03:02:43;100407.47;;;21.75;55.81
71857;BME280;59712;46.980;28.882;2022-07-06T03:05:11;100405.22;;;21.90;54.62
71857;BME280;59712;46.980;28.882;2022-07-06T03:07:38;100409.84;;;22.09;55.13
71857;BME280;59712;46.980;28.882;2022-07-06T03:10:06;100403.94;;;22.35;54.27
71857;BME280;59712;46.980;28.882;2022-07-06T03:12:35;100392.38;;;22.62;53.04
71857;BME280;59712;46.980;28.882;2022-07-06T03:15:03;100396.06;;;22.90;52.75
71857;BME280;59712;46.980;28.882;2022-07-06T03:17:30;100389.59;;;23.20;52.77
71857;BME280;59712;46.980;28.882;2022-07-06T03:19:57;100394.22;;;23.48;52.44
71857;BME280;59712;46.980;28.882;2022-07-06T03:22:24;100394.66;;;23.80;50.94
71857;BME280;59712;46.980;28.882;2022-07-06T03:24:52;100397.75;;;24.13;49.80
71857;BME280;59712;46.980;28.882;2022-07-06T03:27:19;100400.44;;;24.41;49.58
71857;BME280;59712;46.980;28.882;2022-07-06T03:29:46;100394.06;;;24.68;48.39
71857;BME280;59712;46.980;28.882;2022-07-06T03:32:14;100391.22;;;24.96;48.06
71857;BME280;59712;46.980;28.882;2022-07-06T03:34:41;100396.84;;;25.20;47.91
71857;BME280;59712;46.980;28.882;2022-07-06T03:37:08;100406.38;;;25.42;47.96
71857;BME280;59712;46.980;28.882;2022-07-06T03:39:35;100408.13;;;25.60;47.40
71857;BME280;59712;46.980;28.882;2022-07-06T03:42:03;100405.50;;;25.76;46.49
71857;BME280;59712;46.980;28.882;2022-07-06T03:44:30;100409.19;;;26.01;46.05
71857;BME280;59712;46.980;28.882;2022-07-06T03:46:57;100408.06;;;26.29;45.56
71857;BME280;59712;46.980;28.882;2022-07-06T03:49:25;100398.44;;;26.59;45.23
71857;BME280;59712;46.980;28.882;2022-07-06T03:51:55;100394.69;;;26.85;43.90
71857;BME280;59712;46.980;28.882;2022-07-06T03:54:22;100397.06;;;27.12;43.41
71857;BME280;59712;46.980;28.882;2022-07-06T03:56:49;100384.25;;;27.29;43.13
71857;BME280;59712;46.980;28.882;2022-07-06T03:59:16;100388.94;;;27.52;42.63
71857;BME280;59712;46.980;28.882;2022-07-06T04:01:44;100385.84;;;27.63;42.93
71857;BME280;59712;46.980;28.882;2022-07-06T04:04:11;100389.16;;;27.81;41.61
71857;BME280;59712;46.980;28.882;2022-07-06T04:06:38;100384.34;;;28.00;41.52
71857;BME280;59712;46.980;28.882;2022-07-06T04:09:06;100386.44;;;28.21;41.88
71857;BME280;59712;46.980;28.882;2022-07-06T04:11:33;100386.75;;;28.49;41.41
71857;BME280;59712;46.980;28.882;2022-07-06T04:14:00;100373.03;;;28.80;40.96
71857;BME280;59712;46.980;28.882;2022-07-06T04:16:28;100382.78;;;28.98;40.11
71857;BME280;59712;46.980;28.882;2022-07-06T04:18:55;100381.59;;;29.15;39.42
71857;BME280;59712;46.980;28.882;2022-07-06T04:21:22;100372.00;;;29.34;40.07
71857;BME280;59712;46.980;28.882;2022-07-06T04:23:53;100378.09;;;29.51;39.96
71857;BME280;59712;46.980;28.882;2022-07-06T04:26:20;100378.88;;;29.75;40.17
71857;BME280;59712;46.980;28.882;2022-07-06T04:28:47;100384.88;;;30.00;39.34
71857;BME280;59712;46.980;28.882;2022-07-06T04:31:14;100375.78;;;30.14;37.50
71857;BME280;59712;46.980;28.882;2022-07-06T04:33:42;100378.19;;;30.24;38.10
71857;BME280;59712;46.980;28.882;2022-07-06T04:36:12;100377.38;;;30.45;38.33
71857;BME280;59712;46.980;28.882;2022-07-06T04:38:40;100377.06;;;30.55;37.76
71857;BME280;59712;46.980;28.882;2022-07-06T04:41:07;100379.09;;;30.68;36.90
71857;BME280;59712;46.980;28.882;2022-07-06T04:43:35;100376.44;;;30.81;37.30
71857;BME280;59712;46.980;28.882;2022-07-06T04:46:03;100365.25;;;31.04;37.79
71857;BME280;59712;46.980;28.882;2022-07-06T04:48:30;100378.06;;;31.25;37.24
71857;BME280;59712;46.980;28.882;2022-07-06T04:50:58;100370.41;;;31.49;36.38
71857;BME280;59712;46.980;28.882;2022-07-06T04:53:26;100373.06;;;31.70;36.26
71857;BME280;59712;46.980;28.882;2022-07-06T04:55:54;100383.25;;;31.83;36.52
71857;BME280;59712;46.980;28.882;2022-07-06T04:58:21;100373.78;;;31.86;36.30
71857;BME280;59712;46.980;28.882;2022-07-06T05:00:49;100367.72;;;32.04;36.07
71857;BME280;59712;46.980;28.882;2022-07-06T05:03:16;100378.59;;;32.39;36.08
71857;BME280;59712;46.980;28.882;2022-07-06T05:05:44;100374.22;;;32.58;35.61
71857;BME280;59712;46.980;28.882;2022-07-06T05:08:11;100373.16;;;32.79;34.40
71857;BME280;59712;46.980;28.882;2022-07-06T05:10:39;100384.16;;;32.79;34.03
71857;BME280;59712;46.980;28.882;2022-07-06T05:13:06;100378.63;;;32.59;34.95
71857;BME280;59712;46.980;28.882;2022-07-06T05:15:34;100377.34;;;32.54;34.88
71857;BME280;59712;46.980;28.882;2022-07-06T05:18:01;100383.50;;;32.63;35.26
71857;BME280;59712;46.980;28.882;2022-07-06T05:20:29;100386.06;;;32.85;35.33
71857;BME280;59712;46.980;28.882;2022-07-06T05:22:57;100379.06;;;33.09;35.34
71857;BME280;59712;46.980;28.882;2022-07-06T05:25:24;100378.03;;;33.10;34.01
71857;BME280;59712;46.980;28.882;2022-07-06T05:27:51;100369.13;;;33.14;34.56
71857;BME280;59712;46.980;28.882;2022-07-06T05:30:19;100370.34;;;33.39;33.67
71857;BME280;59712;46.980;28.882;2022-07-06T05:32:46;100371.78;;;33.61;33.57
71857;BME280;59712;46.980;28.882;2022-07-06T05:35:13;100362.78;;;33.86;34.23
71857;BME280;59712;46.980;28.882;2022-07-06T05:38:01;100371.09;;;34.24;34.01
71857;BME280;59712;46.980;28.882;2022-07-06T05:40:28;100366.25;;;34.51;33.28
71857;BME280;59712;46.980;28.882;2022-07-06T05:42:56;100380.06;;;34.77;33.18
71857;BME280;59712;46.980;28.882;2022-07-06T05:45:23;100367.50;;;35.06;31.61
71857;BME280;59712;46.980;28.882;2022-07-06T05:47:54;100361.09;;;35.30;30.43
71857;BME280;59712;46.980;28.882;2022-07-06T05:50:40;100371.25;;;35.55;28.74
71857;BME280;59712;46.980;28.882;2022-07-06T05:53:08;100366.03;;;35.65;27.72
71857;BME280;59712;46.980;28.882;2022-07-06T05:55:46;100367.09;;;35.83;28.34
71857;BME280;59712;46.980;28.882;2022-07-06T05:58:16;100368.53;;;36.04;27.66
71857;BME280;59712;46.980;28.882;2022-07-06T06:00:44;100371.44;;;36.09;27.48
71857;BME280;59712;46.980;28.882;2022-07-06T06:03:11;100373.66;;;36.19;27.21
71857;BME280;59712;46.980;28.882;2022-07-06T06:05:38;100365.66;;;36.10;27.39
71857;BME280;59712;46.980;28.882;2022-07-06T06:08:05;100356.72;;;35.60;27.42
71857;BME280;59712;46.980;28.882;2022-07-06T06:10:33;100363.31;;;34.97;28.12
71857;BME280;59712;46.980;28.882;2022-07-06T06:13:01;100361.63;;;34.45;29.30
71857;BME280;59712;46.980;28.882;2022-07-06T06:15:28;100355.72;;;34.03;29.62
71857;BME280;59712;46.980;28.882;2022-07-06T06:17:56;100347.66;;;33.50;30.33
71857;BME280;59712;46.980;28.882;2022-07-06T06:20:23;100351.31;;;32.97;30.54
71857;BME280;59712;46.980;28.882;2022-07-06T06:22:55;100349.41;;;32.44;31.00
71857;BME280;59712;46.980;28.882;2022-07-06T06:25:31;100345.69;;;31.97;32.08
71857;BME280;59712;46.980;28.882;2022-07-06T06:27:59;100341.50;;;31.53;32.76
71857;BME280;59712;46.980;28.882;2022-07-06T06:30:27;100339.97;;;31.09;33.48
71857;BME280;59712;46.980;28.882;2022-07-06T06:33:26;100344.31;;;30.75;34.22
71857;BME280;59712;46.980;28.882;2022-07-06T06:35:54;100341.09;;;30.65;34.90
71857;BME280;59712;46.980;28.882;2022-07-06T06:38:22;100333.78;;;30.50;35.02
71857;BME280;59712;46.980;28.882;2022-07-06T06:40:55;100347.63;;;30.42;34.53
71857;BME280;59712;46.980;28.882;2022-07-06T06:43:22;100337.56;;;30.28;34.77
71857;BME280;59712;46.980;28.882;2022-07-06T06:45:50;100334.88;;;30.13;35.23
71857;BME280;59712;46.980;28.882;2022-07-06T06:48:18;100338.56;;;30.05;34.82
71857;BME280;59712;46.980;28.882;2022-07-06T06:50:45;100334.28;;;29.96;34.84
71857;BME280;59712;46.980;28.882;2022-07-06T06:53:13;100341.56;;;29.89;35.12
71857;BME280;59712;46.980;28.882;2022-07-06T06:55:40;100332.50;;;29.88;34.40
71857;BME280;59712;46.980;28.882;2022-07-06T06:58:07;100335.44;;;29.87;34.96
71857;BME280;59712;46.980;28.882;2022-07-06T07:00:35;100334.59;;;29.86;34.79
71857;BME280;59712;46.980;28.882;2022-07-06T07:03:02;100331.66;;;29.88;34.81
71857;BME280;59712;46.980;28.882;2022-07-06T07:05:29;100337.56;;;29.91;34.68
71857;BME280;59712;46.980;28.882;2022-07-06T07:07:56;100337.91;;;30.03;34.46
71857;BME280;59712;46.980;28.882;2022-07-06T07:10:36;100335.06;;;30.11;34.55
71857;BME280;59712;46.980;28.882;2022-07-06T07:13:04;100340.69;;;30.25;33.88
71857;BME280;59712;46.980;28.882;2022-07-06T07:15:31;100331.03;;;30.29;33.49
71857;BME280;59712;46.980;28.882;2022-07-06T07:18:04;100325.53;;;30.29;33.22
71857;BME280;59712;46.980;28.882;2022-07-06T07:20:31;100321.78;;;30.30;33.98
71857;BME280;59712;46.980;28.882;2022-07-06T07:23:01;100322.03;;;30.35;32.96
71857;BME280;59712;46.980;28.882;2022-07-06T07:25:28;100321.47;;;30.40;31.96
71857;BME280;59712;46.980;28.882;2022-07-06T07:27:56;100323.81;;;30.43;32.07
71857;BME280;59712;46.980;28.882;2022-07-06T07:30:24;100332.72;;;30.51;32.98
71857;BME280;59712;46.980;28.882;2022-07-06T07:32:51;100323.78;;;30.64;32.74
71857;BME280;59712;46.980;28.882;2022-07-06T07:35:18;100331.69;;;30.74;31.55
71857;BME280;59712;46.980;28.882;2022-07-06T07:37:45;100325.84;;;30.84;29.04
71857;BME280;59712;46.980;28.882;2022-07-06T07:40:13;100325.31;;;30.95;29.30
71857;BME280;59712;46.980;28.882;2022-07-06T07:42:40;100331.50;;;31.04;28.50
71857;BME280;59712;46.980;28.882;2022-07-06T07:45:08;100327.72;;;31.11;27.15
71857;BME280;59712;46.980;28.882;2022-07-06T07:47:35;100333.06;;;31.20;27.18
71857;BME280;59712;46.980;28.882;2022-07-06T07:50:02;100331.66;;;31.30;27.32
71857;BME280;59712;46.980;28.882;2022-07-06T07:52:30;100333.44;;;31.45;27.35
71857;BME280;59712;46.980;28.882;2022-07-06T07:54:58;100332.22;;;31.54;26.92
71857;BME280;59712;46.980;28.882;2022-07-06T07:57:49;100330.97;;;31.63;27.57
71857;BME280;59712;46.980;28.882;2022-07-06T08:00:17;100325.97;;;31.73;26.33
71857;BME280;59712;46.980;28.882;2022-07-06T08:02:53;100327.25;;;31.78;26.22
71857;BME280;59712;46.980;28.882;2022-07-06T08:05:24;100325.56;;;31.83;26.24
71857;BME280;59712;46.980;28.882;2022-07-06T08:07:52;100320.75;;;31.92;25.53
71857;BME280;59712;46.980;28.882;2022-07-06T08:10:20;100318.00;;;31.99;24.62
71857;BME280;59712;46.980;28.882;2022-07-06T08:12:47;100321.66;;;32.06;25.10
71857;BME280;59712;46.980;28.882;2022-07-06T08:15:14;100319.16;;;32.18;24.55
71857;BME280;59712;46.980;28.882;2022-07-06T08:17:42;100325.72;;;32.30;23.15
71857;BME280;59712;46.980;28.882;2022-07-06T08:20:10;100325.06;;;32.41;23.70
71857;BME280;59712;46.980;28.882;2022-07-06T08:22:38;100315.16;;;32.53;23.59
71857;BME280;59712;46.980;28.882;2022-07-06T08:25:07;100316.88;;;32.68;23.34
71857;BME280;59712;46.980;28.882;2022-07-06T08:27:35;100315.38;;;32.79;23.29
71857;BME280;59712;46.980;28.882;2022-07-06T08:30:05;100317.25;;;32.85;23.69
71857;BME280;59712;46.980;28.882;2022-07-06T08:32:41;100317.28;;;32.91;23.52
71857;BME280;59712;46.980;28.882;2022-07-06T08:35:31;100315.13;;;33.00;24.31
71857;BME280;59712;46.980;28.882;2022-07-06T08:37:59;100311.31;;;33.73;24.62
71857;BME280;59712;46.980;28.882;2022-07-06T08:40:33;100316.66;;;34.70;22.82
71857;BME280;59712;46.980;28.882;2022-07-06T08:43:03;100315.22;;;35.48;22.32
71857;BME280;59712;46.980;28.882;2022-07-06T08:45:36;100313.44;;;36.44;21.65
71857;BME280;59712;46.980;28.882;2022-07-06T08:48:06;100324.13;;;37.18;21.19
71857;BME280;59712;46.980;28.882;2022-07-06T08:50:33;100327.28;;;38.03;20.08
71857;BME280;59712;46.980;28.882;2022-07-06T08:53:00;100331.63;;;38.28;19.55
71857;BME280;59712;46.980;28.882;2022-07-06T08:55:29;100325.28;;;38.61;19.26
71857;BME280;59712;46.980;28.882;2022-07-06T08:57:57;100317.59;;;39.02;18.52
71857;BME280;59712;46.980;28.882;2022-07-06T09:00:33;100309.47;;;39.39;17.37
71857;BME280;59712;46.980;28.882;2022-07-06T09:03:15;100325.31;;;39.17;17.37
71857;BME280;59712;46.980;28.882;2022-07-06T09:05:45;100324.22;;;39.40;17.87
71857;BME280;59712;46.980;28.882;2022-07-06T09:08:20;100310.72;;;39.71;16.57
71857;BME280;59712;46.980;28.882;2022-07-06T09:10:49;100316.88;;;40.00;16.95
71857;BME280;59712;46.980;28.882;2022-07-06T09:13:17;100323.28;;;40.28;15.90
71857;BME280;59712;46.980;28.882;2022-07-06T09:15:44;100316.97;;;39.83;16.16
71857;BME280;59712;46.980;28.882;2022-07-06T09:18:13;100306.09;;;39.81;17.27
71857;BME280;59712;46.980;28.882;2022-07-06T09:20:41;100313.81;;;39.96;16.99
71857;BME280;59712;46.980;28.882;2022-07-06T09:23:09;100299.28;;;40.21;16.74
71857;BME280;59712;46.980;28.882;2022-07-06T09:25:47;100305.28;;;40.35;16.89
71857;BME280;59712;46.980;28.882;2022-07-06T09:28:16;100311.94;;;40.67;15.99
71857;BME280;59712;46.980;28.882;2022-07-06T09:30:48;100304.47;;;40.72;15.76
71857;BME280;59712;46.980;28.882;2022-07-06T09:33:26;100300.13;;;40.87;16.30
71857;BME280;59712;46.980;28.882;2022-07-06T09:35:54;100311.78;;;41.21;15.99
71857;BME280;59712;46.980;28.882;2022-07-06T09:38:32;100299.31;;;40.54;16.33
71857;BME280;59712;46.980;28.882;2022-07-06T09:41:00;100296.06;;;40.67;16.40
71857;BME280;59712;46.980;28.882;2022-07-06T09:43:30;100297.97;;;41.04;15.61
71857;BME280;59712;46.980;28.882;2022-07-06T09:46:00;100300.97;;;41.35;16.16
71857;BME280;59712;46.980;28.882;2022-07-06T09:48:31;100290.63;;;41.30;15.82
71857;BME280;59712;46.980;28.882;2022-07-06T09:51:00;100291.38;;;40.73;15.92
71857;BME280;59712;46.980;28.882;2022-07-06T09:53:35;100278.06;;;41.23;16.64
71857;BME280;59712;46.980;28.882;2022-07-06T09:56:05;100291.59;;;41.62;15.60
71857;BME280;59712;46.980;28.882;2022-07-06T09:58:32;100277.41;;;41.68;15.11
71857;BME280;59712;46.980;28.882;2022-07-06T10:01:27;100288.13;;;41.29;15.45
71857;BME280;59712;46.980;28.882;2022-07-06T10:03:59;100276.78;;;40.98;15.85
71857;BME280;59712;46.980;28.882;2022-07-06T10:06:29;100271.59;;;41.17;16.31
71857;BME280;59712;46.980;28.882;2022-07-06T10:08:58;100278.22;;;41.64;15.80
71857;BME280;59712;46.980;28.882;2022-07-06T10:11:29;100274.25;;;41.49;15.09
71857;BME280;59712;46.980;28.882;2022-07-06T10:13:58;100266.44;;;40.93;15.92
71857;BME280;59712;46.980;28.882;2022-07-06T10:16:28;100283.66;;;41.33;15.73
71857;BME280;59712;46.980;28.882;2022-07-06T10:18:57;100269.97;;;41.26;16.04
71857;BME280;59712;46.980;28.882;2022-07-06T10:21:25;100263.84;;;41.29;16.07
71857;BME280;59712;46.980;28.882;2022-07-06T10:23:52;100262.59;;;40.57;16.23
71857;BME280;59712;46.980;28.882;2022-07-06T10:26:21;100256.56;;;39.07;16.91
71857;BME280;59712;46.980;28.882;2022-07-06T10:28:49;100258.59;;;37.93;18.09
71857;BME280;59712;46.980;28.882;2022-07-06T10:31:18;100247.41;;;37.07;18.68
71857;BME280;59712;46.980;28.882;2022-07-06T10:33:46;100258.97;;;36.92;18.45
71857;BME280;59712;46.980;28.882;2022-07-06T10:36:15;100258.97;;;36.33;19.25
71857;BME280;59712;46.980;28.882;2022-07-06T10:38:48;100259.22;;;36.01;19.20
71857;BME280;59712;46.980;28.882;2022-07-06T10:41:17;100248.47;;;35.51;20.77
71857;BME280;59712;46.980;28.882;2022-07-06T10:43:46;100246.78;;;35.13;20.63
71857;BME280;59712;46.980;28.882;2022-07-06T10:46:16;100242.63;;;35.41;20.53
71857;BME280;59712;46.980;28.882;2022-07-06T10:48:48;100236.41;;;35.45;20.47
71857;BME280;59712;46.980;28.882;2022-07-06T10:51:29;100237.31;;;35.58;20.39
71857;BME280;59712;46.980;28.882;2022-07-06T10:54:01;100227.91;;;35.47;20.31
71857;BME280;59712;46.980;28.882;2022-07-06T10:56:43;100241.84;;;34.97;20.98
71857;BME280;59712;46.980;28.882;2022-07-06T10:59:22;100228.75;;;34.48;21.16
71857;BME280;59712;46.980;28.882;2022-07-06T11:02:15;100242.41;;;34.11;21.88
71857;BME280;59712;46.980;28.882;2022-07-06T11:04:49;100236.66;;;34.20;21.65
71857;BME280;59712;46.980;28.882;2022-07-06T11:07:19;100224.44;;;34.34;21.93
71857;BME280;59712;46.980;28.882;2022-07-06T11:09:55;100223.00;;;34.50;22.58
71857;BME280;59712;46.980;28.882;2022-07-06T11:12:23;100216.78;;;34.36;21.82
71857;BME280;59712;46.980;28.882;2022-07-06T11:14:53;100219.63;;;34.23;22.44
71857;BME280;59712;46.980;28.882;2022-07-06T11:17:22;100213.22;;;34.29;21.98
71857;BME280;59712;46.980;28.882;2022-07-06T11:19:55;100209.03;;;34.45;21.75
71857;BME280;59712;46.980;28.882;2022-07-06T11:22:29;100214.03;;;34.55;21.55
71857;BME280;59712;46.980;28.882;2022-07-06T11:24:57;100206.47;;;34.50;21.77
71857;BME280;59712;46.980;28.882;2022-07-06T11:27:25;100212.00;;;34.25;21.75
71857;BME280;59712;46.980;28.882;2022-07-06T11:29:54;100210.25;;;34.05;21.89
71857;BME280;59712;46.980;28.882;2022-07-06T11:32:26;100199.59;;;34.09;22.05
71857;BME280;59712;46.980;28.882;2022-07-06T11:35:04;100205.13;;;34.34;22.63
71857;BME280;59712;46.980;28.882;2022-07-06T11:37:31;100201.13;;;34.55;21.13
71857;BME280;59712;46.980;28.882;2022-07-06T11:40:06;100197.63;;;34.66;21.12
71857;BME280;59712;46.980;28.882;2022-07-06T11:42:34;100192.91;;;34.48;21.56
71857;BME280;59712;46.980;28.882;2022-07-06T11:45:03;100183.38;;;34.26;21.46
71857;BME280;59712;46.980;28.882;2022-07-06T11:47:30;100184.19;;;34.01;21.59
71857;BME280;59712;46.980;28.882;2022-07-06T11:49:58;100180.06;;;34.17;22.03
71857;BME280;59712;46.980;28.882;2022-07-06T11:52:25;100185.69;;;34.47;21.46
71857;BME280;59712;46.980;28.882;2022-07-06T11:54:57;100168.78;;;34.19;22.13
71857;BME280;59712;46.980;28.882;2022-07-06T11:57:29;100174.97;;;34.39;22.29
71857;BME280;59712;46.980;28.882;2022-07-06T11:59:59;100181.13;;;34.60;21.73
71857;BME280;59712;46.980;28.882;2022-07-06T12:02:28;100184.94;;;34.59;21.43
71857;BME280;59712;46.980;28.882;2022-07-06T12:04:59;100177.75;;;34.58;21.58
71857;BME280;59712;46.980;28.882;2022-07-06T12:07:27;100172.13;;;34.64;21.61
71857;BME280;59712;46.980;28.882;2022-07-06T12:09:55;100188.81;;;34.51;21.12
71857;BME280;59712;46.980;28.882;2022-07-06T12:12:25;100172.34;;;34.26;21.07
71857;BME280;59712;46.980;28.882;2022-07-06T12:14:52;100153.25;;;34.24;21.69
71857;BME280;59712;46.980;28.882;2022-07-06T12:17:20;100166.28;;;34.17;22.05
71857;BME280;59712;46.980;28.882;2022-07-06T12:19:52;100166.81;;;34.26;21.63
71857;BME280;59712;46.980;28.882;2022-07-06T12:22:25;100172.47;;;34.31;20.69
71857;BME280;59712;46.980;28.882;2022-07-06T12:24:53;100166.13;;;34.30;21.31
71857;BME280;59712;46.980;28.882;2022-07-06T12:27:21;100157.63;;;34.32;20.74
71857;BME280;59712;46.980;28.882;2022-07-06T12:29:49;100154.84;;;34.07;20.95
71857;BME280;59712;46.980;28.882;2022-07-06T12:32:21;100165.69;;;33.83;21.50
71857;BME280;59712;46.980;28.882;2022-07-06T12:35:09;100174.09;;;33.63;21.68
71857;BME280;59712;46.980;28.882;2022-07-06T12:37:38;100157.28;;;33.71;22.10
71857;BME280;59712;46.980;28.882;2022-07-06T12:40:27;100148.06;;;34.09;21.87
71857;BME280;59712;46.980;28.882;2022-07-06T12:42:56;100151.75;;;34.47;22.27
71857;BME280;59712;46.980;28.882;2022-07-06T12:45:28;100137.81;;;34.79;21.52
71857;BME280;59712;46.980;28.882;2022-07-06T12:48:03;100159.75;;;34.92;20.96
71857;BME280;59712;46.980;28.882;2022-07-06T12:50:35;100158.31;;;34.71;21.55
71857;BME280;59712;46.980;28.882;2022-07-06T12:53:06;100156.09;;;34.36;21.99